Emrick, North Dakota
Current Conditions -  °F | °C
As of 4:35 AM on Friday 21 Nov 2014 (Local Time) from K46D Reporting Station
Clear Clear  
Wind Chill:   Ceiling: Unl
Heat Index: 19°   Visibility: 10mi
Dew Point: 19°   Wind: 12mph
Humidity: 100%   Direction: 170°S
Pressure: 29.8"   Gusts: NA
Location:  47.5442°N, 99.4582°W
Report Text: K46D 211035Z AUTO 17010KT 10SM CLR M07/M07 A2980 RMK AO2
Loading
Personal Weather Stations






























Interactive Weather Map New forecast layout! Learn more

10-Day Weather Forecast

Advertisements
Track Severe Weather on mobile